Time;durP1;ratioP1;P1;durP2;ratioP2;P2;SDS_P1;SDS_P2;PMS_P1;PMS_P2;Temp;Humidity;BMP_temperature;BMP_pressure;BME280_temperature;BME280_humidity;BME280_pressure;Samples;Min_cycle;Max_cycle;Signal;HPM_P1;HPM_P2
2023/01/30 00:00:53;;;;;;;20.13;8.18;;;6.40;99.90;;;;;;4957158;28;20499;-74
2023/01/30 00:03:21;;;;;;;15.95;8.25;;;6.40;99.90;;;;;;4974536;28;20407;-74
2023/01/30 00:05:48;;;;;;;14.45;8.45;;;6.50;99.90;;;;;;4956276;28;20491;-74
2023/01/30 00:08:15;;;;;;;12.05;7.85;;;6.50;99.90;;;;;;4973506;28;20051;-73
2023/01/30 00:10:43;;;;;;;16.40;7.55;;;6.50;99.90;;;;;;4957045;28;20054;-76
2023/01/30 00:13:10;;;;;;;15.52;8.73;;;6.50;99.90;;;;;;4973600;28;20415;-79
2023/01/30 00:15:37;;;;;;;12.50;7.63;;;6.50;99.90;;;;;;4974558;28;20046;-79
2023/01/30 00:18:05;;;;;;;16.77;7.40;;;6.50;99.90;;;;;;4956395;28;20495;-79
2023/01/30 00:20:32;;;;;;;12.32;6.35;;;6.50;99.90;;;;;;4957016;28;20043;-79
2023/01/30 00:22:59;;;;;;;13.50;7.57;;;6.50;99.90;;;;;;4956395;28;20047;-78
2023/01/30 00:25:26;;;;;;;21.73;7.90;;;6.60;99.90;;;;;;4955660;28;20079;-78
2023/01/30 00:27:55;;;;;;;15.35;7.00;;;6.60;99.90;;;;;;4951967;28;20434;-78
2023/01/30 00:30:22;;;;;;;14.65;6.97;;;6.60;99.90;;;;;;4975372;28;20050;-78
2023/01/30 00:32:54;;;;;;;14.23;7.70;;;6.60;99.90;;;;;;4972901;28;20498;-78
2023/01/30 00:35:21;;;;;;;12.43;5.75;;;7.10;99.90;;;;;;4971875;28;20054;-79
2023/01/30 00:37:48;;;;;;;14.88;7.07;;;6.70;99.90;;;;;;4956548;28;20081;-78
2023/01/30 00:40:15;;;;;;;9.85;6.13;;;6.70;99.90;;;;;;4970869;28;20561;-79
2023/01/30 00:48:12;;;;;;;14.55;7.30;;;6.60;99.90;;;;;;4955988;28;20055;-80
2023/01/30 00:50:44;;;;;;;12.45;6.18;;;6.70;99.90;;;;;;4973748;28;20055;-80
2023/01/30 00:53:12;;;;;;;13.10;6.50;;;6.60;99.90;;;;;;4973310;28;20110;-80
2023/01/30 00:55:39;;;;;;;12.45;6.05;;;7.10;99.90;;;;;;4957111;28;20109;-80
2023/01/30 00:58:06;;;;;;;12.55;5.35;;;6.50;99.90;;;;;;4954087;28;20570;-80
2023/01/30 01:00:35;;;;;;;13.07;7.13;;;6.50;99.90;;;;;;4955716;28;20388;-78
2023/01/30 01:03:02;;;;;;;16.90;6.75;;;6.50;99.90;;;;;;4970150;28;20478;-78
2023/01/30 01:05:29;;;;;;;13.77;6.43;;;6.40;99.90;;;;;;4969526;28;20046;-78
2023/01/30 01:07:56;;;;;;;10.05;6.53;;;6.50;99.90;;;;;;4965458;28;20101;-78
2023/01/30 01:10:23;;;;;;;10.77;5.82;;;6.40;99.90;;;;;;4955752;28;20050;-78
2023/01/30 01:12:52;;;;;;;13.85;5.90;;;6.40;99.90;;;;;;4955694;28;20459;-79
2023/01/30 01:15:19;;;;;;;13.25;6.32;;;6.40;99.90;;;;;;4954329;28;20523;-79
2023/01/30 01:17:48;;;;;;;10.20;6.18;;;6.40;99.90;;;;;;4973404;28;20171;-78
2023/01/30 01:20:16;;;;;;;11.70;5.15;;;6.30;99.90;;;;;;4970188;28;20058;-78
2023/01/30 01:22:43;;;;;;;10.75;5.38;;;6.40;99.90;;;;;;4955926;28;20055;-78
2023/01/30 01:25:10;;;;;;;10.75;4.80;;;6.40;99.90;;;;;;4956122;28;20039;-77
2023/01/30 01:27:38;;;;;;;9.68;5.55;;;6.40;99.90;;;;;;4972811;28;20053;-77
2023/01/30 01:30:06;;;;;;;11.00;5.32;;;6.40;99.90;;;;;;4972514;28;20051;-78
2023/01/30 01:32:33;;;;;;;11.30;5.47;;;6.40;99.90;;;;;;4972944;28;20094;-85
2023/01/30 01:35:01;;;;;;;15.05;6.40;;;6.40;99.90;;;;;;4957531;28;20050;-78
2023/01/30 01:37:28;;;;;;;14.60;5.72;;;6.40;99.90;;;;;;4980401;28;20054;-78
2023/01/30 01:42:39;;;;;;;12.75;4.78;;;6.40;99.90;;;;;;4958370;28;20529;-78
2023/01/30 01:45:17;;;;;;;14.20;5.55;;;7.00;99.90;;;;;;4955891;28;20046;-77
2023/01/30 01:47:49;;;;;;;16.90;5.18;;;6.40;99.90;;;;;;4955552;28;20047;-76
2023/01/30 01:50:21;;;;;;;8.70;4.80;;;6.40;99.90;;;;;;4971608;28;20082;-77
2023/01/30 01:52:50;;;;;;;13.20;5.47;;;6.40;99.90;;;;;;4968428;28;20412;-77
2023/01/30 01:55:18;;;;;;;14.52;6.28;;;6.40;99.90;;;;;;4953081;28;20057;-77
2023/01/30 01:57:52;;;;;;;18.98;5.97;;;6.40;99.90;;;;;;4954784;28;20051;-77
2023/01/30 02:00:22;;;;;;;14.35;5.93;;;6.40;99.90;;;;;;4955873;28;20101;-77
2023/01/30 02:02:54;;;;;;;14.60;7.07;;;6.40;99.90;;;;;;4955753;28;20043;-79
2023/01/30 02:05:23;;;;;;;17.33;6.40;;;6.50;99.90;;;;;;4969065;28;20455;-78
2023/01/30 02:07:54;;;;;;;16.85;7.13;;;6.50;99.90;;;;;;4955779;28;20054;-78
2023/01/30 02:10:23;;;;;;;16.63;7.68;;;6.50;99.90;;;;;;4955564;28;20384;-78
2023/01/30 02:12:51;;;;;;;17.73;7.60;;;6.50;99.90;;;;;;4959118;28;20094;-78
2023/01/30 02:15:19;;;;;;;20.83;7.85;;;6.50;99.90;;;;;;4959504;28;20050;-78
2023/01/30 02:17:46;;;;;;;20.90;7.38;;;6.50;99.90;;;;;;4973864;28;20118;-78
2023/01/30 02:20:27;;;;;;;30.17;7.90;;;6.50;99.90;;;;;;4958544;28;20109;-78
2023/01/30 02:23:19;;;;;;;14.27;6.95;;;6.50;99.90;;;;;;4959265;28;20055;-80
2023/01/30 02:26:03;;;;;;;19.63;7.63;;;6.60;99.90;;;;;;4970945;28;20519;-79
2023/01/30 02:28:48;;;;;;;20.05;7.40;;;6.60;99.90;;;;;;4975518;28;20046;-80
2023/01/30 02:31:32;;;;;;;21.33;6.93;;;6.60;99.90;;;;;;4958965;28;20146;-79
2023/01/30 02:34:10;;;;;;;19.95;7.18;;;6.60;99.90;;;;;;4959187;28;20562;-78
2023/01/30 02:36:46;;;;;;;21.13;7.57;;;6.60;99.90;;;;;;4975793;28;20101;-79
2023/01/30 02:39:26;;;;;;;20.63;7.35;;;6.60;99.90;;;;;;4958277;28;20132;-79
2023/01/30 02:42:04;;;;;;;20.13;7.80;;;6.70;99.90;;;;;;4971044;28;20046;-79
2023/01/30 02:44:42;;;;;;;25.95;7.68;;;6.70;99.90;;;;;;4958751;28;20046;-80
2023/01/30 02:47:14;;;;;;;17.90;6.82;;;6.70;99.90;;;;;;4972825;28;20388;-80
2023/01/30 02:49:46;;;;;;;25.85;7.13;;;6.70;99.90;;;;;;4975870;28;20054;-80
2023/01/30 02:52:15;;;;;;;18.67;6.05;;;6.70;99.90;;;;;;4972494;28;20495;-80
2023/01/30 02:54:42;;;;;;;18.92;6.97;;;6.70;99.90;;;;;;4974174;28;20066;-79
2023/01/30 02:57:19;;;;;;;20.20;6.30;;;6.70;99.90;;;;;;4975711;28;20043;-78
2023/01/30 02:59:48;;;;;;;19.95;6.20;;;6.70;99.90;;;;;;4971703;28;20043;-78
2023/01/30 03:03:06;;;;;;;19.33;6.03;;;6.80;99.90;;;;;;4958710;28;20479;-79
2023/01/30 03:05:51;;;;;;;19.33;6.15;;;6.80;99.90;;;;;;4898037;28;20057;-78
2023/01/30 03:08:28;;;;;;;22.92;5.90;;;6.80;99.90;;;;;;4979046;28;20057;-79
2023/01/30 03:11:00;;;;;;;23.00;5.20;;;6.80;99.90;;;;;;4958905;28;20054;-79
2023/01/30 03:13:37;;;;;;;15.63;5.32;;;6.70;99.90;;;;;;4958279;28;20105;-78
2023/01/30 03:16:09;;;;;;;23.70;5.78;;;6.70;99.90;;;;;;4956751;28;20090;-78
2023/01/30 03:18:36;;;;;;;16.30;5.32;;;6.70;99.90;;;;;;4975439;28;20455;-78
2023/01/30 03:21:08;;;;;;;24.17;6.20;;;6.70;99.90;;;;;;4955848;28;20059;-79
2023/01/30 03:23:35;;;;;;;16.58;5.20;;;6.70;99.90;;;;;;4966297;28;20407;-78
2023/01/30 03:26:05;;;;;;;17.13;5.43;;;6.60;99.90;;;;;;4957537;28;20050;-78
2023/01/30 03:28:34;;;;;;;20.85;5.57;;;6.50;99.90;;;;;;4956542;28;20051;-78
2023/01/30 03:31:01;;;;;;;22.88;5.75;;;6.50;99.90;;;;;;4975226;28;20050;-79
2023/01/30 03:33:28;;;;;;;24.00;5.97;;;6.40;99.90;;;;;;4957946;28;20118;-78
2023/01/30 03:35:55;;;;;;;17.83;5.43;;;6.30;99.90;;;;;;4973425;28;20105;-78
2023/01/30 03:38:23;;;;;;;18.35;4.95;;;6.20;99.90;;;;;;4974312;28;20058;-78
2023/01/30 03:40:50;;;;;;;19.98;6.05;;;6.20;99.90;;;;;;4974315;28;20047;-79
2023/01/30 03:43:17;;;;;;;22.83;5.55;;;6.10;99.90;;;;;;4959342;28;20070;-79
2023/01/30 03:45:43;;;;;;;19.38;5.45;;;6.10;99.90;;;;;;4982345;28;20094;-78
2023/01/30 03:48:10;;;;;;;15.07;4.75;;;6.00;99.90;;;;;;4965156;28;20049;-78
2023/01/30 03:50:37;;;;;;;19.45;4.40;;;6.00;99.90;;;;;;4956676;28;20097;-80
2023/01/30 03:53:04;;;;;;;18.45;5.50;;;5.90;99.90;;;;;;4957661;28;20747;-79
2023/01/30 03:55:32;;;;;;;15.45;5.13;;;5.90;99.90;;;;;;4957766;28;20418;-78
2023/01/30 03:57:59;;;;;;;21.25;5.28;;;5.80;99.90;;;;;;4956734;28;20443;-80
2023/01/30 04:00:26;;;;;;;17.40;4.78;;;5.80;99.90;;;;;;4974458;28;20130;-80
2023/01/30 04:02:53;;;;;;;14.63;5.03;;;5.80;99.90;;;;;;4957297;28;20058;-79
2023/01/30 04:05:21;;;;;;;22.48;5.57;;;5.80;99.90;;;;;;4956768;28;20047;-78
2023/01/30 04:07:47;;;;;;;23.55;5.55;;;5.80;99.90;;;;;;4956818;28;20046;-80
2023/01/30 04:10:14;;;;;;;22.08;4.80;;;5.70;99.90;;;;;;4956498;28;20055;-79
2023/01/30 04:12:43;;;;;;;25.80;5.85;;;5.70;99.90;;;;;;4974308;28;20463;-79
2023/01/30 04:15:11;;;;;;;19.17;5.93;;;5.70;99.90;;;;;;4973842;28;20050;-78
2023/01/30 04:17:38;;;;;;;20.15;4.70;;;5.60;99.90;;;;;;4973684;28;20495;-79
2023/01/30 04:20:05;;;;;;;20.02;4.90;;;5.50;99.90;;;;;;4957011;28;20472;-79
2023/01/30 04:22:32;;;;;;;26.33;5.28;;;5.60;99.90;;;;;;4957415;28;20457;-79
2023/01/30 04:24:59;;;;;;;21.17;5.32;;;5.50;99.90;;;;;;4973403;28;20459;-80
2023/01/30 04:27:26;;;;;;;26.83;6.20;;;5.50;99.90;;;;;;4941030;28;20459;-79
2023/01/30 04:29:54;;;;;;;14.25;4.72;;;5.40;99.90;;;;;;4974287;28;20427;-78
2023/01/30 04:32:21;;;;;;;17.35;5.70;;;5.40;99.90;;;;;;4956369;28;20096;-78
2023/01/30 04:34:48;;;;;;;13.35;4.78;;;5.30;99.90;;;;;;4971143;28;20054;-78
2023/01/30 04:37:15;;;;;;;18.30;5.15;;;5.30;99.90;;;;;;4958158;28;20059;-78
2023/01/30 04:39:42;;;;;;;17.40;5.40;;;5.30;99.90;;;;;;4979657;28;20046;-78
2023/01/30 04:42:09;;;;;;;28.10;5.85;;;5.30;99.90;;;;;;4981144;28;20047;-81
2023/01/30 04:44:35;;;;;;;21.48;5.25;;;5.70;99.90;;;;;;4963239;28;20055;-78
2023/01/30 04:47:04;;;;;;;26.73;5.78;;;5.30;99.90;;;;;;4976062;28;20050;-79
2023/01/30 04:49:31;;;;;;;20.50;5.60;;;5.40;99.90;;;;;;4959263;28;20051;-80
2023/01/30 04:51:58;;;;;;;20.75;5.55;;;5.30;99.90;;;;;;4959310;28;20105;-80
2023/01/30 04:54:24;;;;;;;23.17;5.47;;;5.30;99.90;;;;;;4956324;28;20055;-79
2023/01/30 04:56:51;;;;;;;26.67;6.85;;;5.30;99.90;;;;;;4974599;28;20043;-79
2023/01/30 04:59:18;;;;;;;17.05;4.50;;;5.40;99.90;;;;;;4956583;28;20055;-77
2023/01/30 05:01:45;;;;;;;17.20;5.05;;;5.40;99.90;;;;;;4956849;28;20074;-78
2023/01/30 05:04:13;;;;;;;16.80;4.72;;;5.30;99.90;;;;;;4956803;28;20057;-78
2023/01/30 05:06:40;;;;;;;27.05;5.47;;;5.30;99.90;;;;;;4956110;28;20046;-78
2023/01/30 05:09:07;;;;;;;23.08;5.55;;;5.30;99.90;;;;;;4974243;28;20493;-78
2023/01/30 05:11:35;;;;;;;13.88;4.80;;;5.20;99.90;;;;;;4973548;28;20166;-78
2023/01/30 05:14:02;;;;;;;21.77;5.32;;;5.20;99.90;;;;;;4956539;28;20538;-79
2023/01/30 05:16:29;;;;;;;23.90;5.47;;;5.10;99.90;;;;;;4973889;28;20043;-78
2023/01/30 05:18:56;;;;;;;20.55;5.03;;;5.10;99.90;;;;;;4974295;28;20054;-78
2023/01/30 05:21:26;;;;;;;21.92;5.90;;;5.00;99.90;;;;;;4973443;28;20047;-78
2023/01/30 05:23:54;;;;;;;19.00;4.97;;;5.00;99.90;;;;;;4957137;28;20061;-79
2023/01/30 05:26:21;;;;;;;21.08;5.75;;;5.00;99.90;;;;;;4953506;28;20063;-78
2023/01/30 05:28:51;;;;;;;17.95;4.72;;;5.10;99.90;;;;;;4936924;29;20480;-78
2023/01/30 05:31:19;;;;;;;20.95;5.47;;;4.90;99.90;;;;;;4954344;29;20051;-78
2023/01/30 05:33:48;;;;;;;22.30;5.50;;;4.90;99.90;;;;;;4954752;29;20058;-77
2023/01/30 05:36:16;;;;;;;20.38;4.53;;;4.90;99.90;;;;;;4953696;29;20693;-78
2023/01/30 05:38:45;;;;;;;29.73;6.50;;;4.90;99.90;;;;;;4937677;29;20047;-78
2023/01/30 05:41:14;;;;;;;21.27;4.93;;;4.90;99.90;;;;;;4953941;29;20496;-78
2023/01/30 05:43:41;;;;;;;18.33;5.07;;;4.80;99.90;;;;;;4953857;28;20047;-79
2023/01/30 05:46:11;;;;;;;21.70;4.50;;;4.80;99.90;;;;;;4956454;29;20051;-79
2023/01/30 05:48:38;;;;;;;27.57;5.50;;;4.80;99.90;;;;;;4946695;29;20134;-81
2023/01/30 05:51:05;;;;;;;26.40;6.45;;;4.80;99.90;;;;;;4969065;29;20081;-80
2023/01/30 05:53:34;;;;;;;21.35;5.35;;;4.70;99.90;;;;;;4950081;29;20051;-82
2023/01/30 05:56:04;;;;;;;24.65;5.95;;;4.70;99.90;;;;;;4958800;29;20083;-84
2023/01/30 05:58:32;;;;;;;20.13;4.83;;;4.80;99.90;;;;;;4955697;29;20047;-83
2023/01/30 06:01:02;;;;;;;20.95;5.30;;;4.90;99.90;;;;;;4959352;29;20047;-82
2023/01/30 06:03:30;;;;;;;17.90;4.60;;;4.90;99.90;;;;;;4954053;28;20063;-76
2023/01/30 06:05:57;;;;;;;27.42;6.13;;;4.90;99.90;;;;;;4953698;28;20047;-78
2023/01/30 06:08:24;;;;;;;25.88;6.07;;;5.30;99.90;;;;;;4955789;28;20062;-77
2023/01/30 06:10:51;;;;;;;19.38;5.40;;;5.10;99.90;;;;;;4937857;29;20522;-77
2023/01/30 06:13:19;;;;;;;21.33;4.93;;;5.10;99.90;;;;;;4955916;28;20055;-77
2023/01/30 06:15:46;;;;;;;25.17;5.50;;;5.10;99.90;;;;;;4938821;29;20055;-75
2023/01/30 06:18:13;;;;;;;25.75;5.03;;;5.40;99.90;;;;;;4942686;29;20055;-75
2023/01/30 06:20:40;;;;;;;23.92;4.88;;;5.20;99.90;;;;;;4947147;29;20054;-78
2023/01/30 06:23:07;;;;;;;18.27;5.32;;;5.30;99.90;;;;;;4958018;29;20058;-75
2023/01/30 06:25:34;;;;;;;23.42;5.57;;;5.30;99.90;;;;;;4938700;28;20067;-74
2023/01/30 06:28:01;;;;;;;25.70;6.05;;;5.40;99.90;;;;;;4939153;28;20046;-76
2023/01/30 06:30:29;;;;;;;20.80;5.82;;;5.40;99.90;;;;;;4955037;28;20063;-76
2023/01/30 06:32:56;;;;;;;22.40;4.60;;;5.40;99.90;;;;;;4939803;28;20056;-75
2023/01/30 06:35:23;;;;;;;26.65;5.35;;;5.60;99.90;;;;;;4937141;28;20407;-77
2023/01/30 06:37:50;;;;;;;24.63;5.05;;;5.50;99.90;;;;;;4955519;28;20519;-77
2023/01/30 06:40:17;;;;;;;16.40;5.15;;;5.50;99.90;;;;;;4941302;28;20059;-76
2023/01/30 06:42:45;;;;;;;22.17;5.72;;;5.40;99.90;;;;;;4955725;28;20110;-77
2023/01/30 06:45:12;;;;;;;26.10;5.60;;;5.50;99.90;;;;;;4949956;28;20055;-77
2023/01/30 06:47:46;;;;;;;24.15;5.28;;;5.50;99.90;;;;;;4938206;28;20455;-77
2023/01/30 06:50:14;;;;;;;21.20;5.30;;;5.50;99.90;;;;;;4956751;28;20415;-76
2023/01/30 06:52:42;;;;;;;20.92;5.70;;;5.50;99.90;;;;;;4956796;28;20051;-74
2023/01/30 06:55:09;;;;;;;27.27;6.45;;;5.50;99.90;;;;;;4956558;28;20114;-75
2023/01/30 06:57:36;;;;;;;22.27;5.65;;;5.50;99.90;;;;;;4932461;28;20047;-74
2023/01/30 07:00:05;;;;;;;27.52;5.55;;;5.60;99.90;;;;;;4934380;28;20050;-73
2023/01/30 07:02:34;;;;;;;23.25;5.32;;;5.50;99.90;;;;;;4936953;28;20043;-75
2023/01/30 07:05:03;;;;;;;21.42;5.20;;;5.50;99.90;;;;;;4932860;28;20107;-74
2023/01/30 07:07:31;;;;;;;17.95;5.13;;;5.60;99.90;;;;;;4956210;28;20577;-74
2023/01/30 07:09:58;;;;;;;18.38;5.63;;;5.50;99.90;;;;;;4934362;28;20405;-76
2023/01/30 07:12:25;;;;;;;24.35;5.28;;;5.60;99.90;;;;;;4937288;28;20158;-76
2023/01/30 07:14:53;;;;;;;26.23;5.63;;;5.60;99.90;;;;;;4941278;28;20055;-76
2023/01/30 07:17:20;;;;;;;26.80;5.55;;;5.60;99.90;;;;;;4955872;28;20055;-75
2023/01/30 07:19:47;;;;;;;29.42;7.50;;;5.70;99.90;;;;;;4954552;28;20491;-76
2023/01/30 07:22:16;;;;;;;29.95;6.35;;;5.70;99.90;;;;;;4951979;28;20039;-76
2023/01/30 07:24:43;;;;;;;20.95;5.72;;;5.70;99.90;;;;;;4938050;28;20051;-76
2023/01/30 07:27:11;;;;;;;23.02;6.20;;;5.70;99.90;;;;;;4953387;28;20062;-76
2023/01/30 07:29:39;;;;;;;31.92;5.97;;;5.60;99.90;;;;;;4935220;29;20047;-76
2023/01/30 07:32:07;;;;;;;21.92;5.70;;;5.70;99.90;;;;;;4936056;29;20082;-76
2023/01/30 07:34:34;;;;;;;22.63;5.55;;;5.70;99.90;;;;;;4936093;29;20059;-75
2023/01/30 07:37:01;;;;;;;18.63;5.13;;;5.70;99.90;;;;;;4935629;29;20044;-76
2023/01/30 07:39:29;;;;;;;23.35;6.65;;;5.70;99.90;;;;;;4936381;28;20073;-77
2023/01/30 07:41:56;;;;;;;23.58;5.03;;;5.70;99.90;;;;;;4952370;28;20393;-79
2023/01/30 07:44:23;;;;;;;26.63;5.78;;;5.70;99.90;;;;;;4953729;29;20086;-78
2023/01/30 07:46:50;;;;;;;21.42;5.88;;;5.70;99.90;;;;;;4953622;29;20047;-75
2023/01/30 07:49:17;;;;;;;17.13;5.78;;;5.70;99.90;;;;;;4949289;28;20047;-75
2023/01/30 07:51:44;;;;;;;24.08;6.20;;;5.70;99.90;;;;;;4929365;28;20126;-75
2023/01/30 07:54:11;;;;;;;20.75;5.22;;;6.70;99.90;;;;;;4952678;28;20062;-75
2023/01/30 07:56:39;;;;;;;25.88;5.47;;;5.80;99.90;;;;;;4950398;29;20054;-76
2023/01/30 07:59:06;;;;;;;31.00;6.13;;;5.80;99.90;;;;;;4934994;29;20055;-75
2023/01/30 08:01:33;;;;;;;22.52;5.10;;;5.90;99.90;;;;;;4935545;29;20062;-75
2023/01/30 08:04:00;;;;;;;23.20;6.05;;;5.90;99.90;;;;;;4952101;29;20388;-75
2023/01/30 08:06:27;;;;;;;20.83;5.20;;;5.90;99.90;;;;;;4933959;28;20055;-75
2023/01/30 08:08:54;;;;;;;16.88;5.03;;;6.00;99.90;;;;;;4928243;29;20070;-75
2023/01/30 08:11:21;;;;;;;28.38;5.30;;;6.00;99.90;;;;;;4951665;29;20055;-74
2023/01/30 08:13:49;;;;;;;18.70;4.43;;;6.00;99.90;;;;;;4934900;29;20051;-75
2023/01/30 08:16:16;;;;;;;24.98;5.82;;;6.00;99.90;;;;;;4952755;29;20055;-74
2023/01/30 08:18:43;;;;;;;18.65;5.10;;;6.10;99.90;;;;;;4935668;29;20098;-75
2023/01/30 08:21:11;;;;;;;20.45;5.18;;;6.10;99.90;;;;;;4952704;29;20416;-75
2023/01/30 08:23:38;;;;;;;22.65;6.43;;;6.30;99.90;;;;;;4935072;29;20109;-74
2023/01/30 08:26:06;;;;;;;23.80;5.63;;;6.20;99.90;;;;;;4962642;28;20149;-73
2023/01/30 08:28:33;;;;;;;29.27;5.05;;;6.20;99.90;;;;;;4973761;28;20035;-76
2023/01/30 08:31:02;;;;;;;25.65;6.32;;;6.20;99.90;;;;;;4959768;28;20061;-75
2023/01/30 08:33:28;;;;;;;21.50;6.38;;;6.20;99.90;;;;;;4954513;28;20046;-74
2023/01/30 08:35:56;;;;;;;24.40;5.10;;;6.20;99.90;;;;;;4953303;28;20161;-75
2023/01/30 08:38:23;;;;;;;22.08;5.20;;;6.20;99.90;;;;;;4971919;28;20411;-75
2023/01/30 08:40:49;;;;;;;19.45;5.30;;;6.20;99.90;;;;;;4967253;28;20092;-76
2023/01/30 08:43:16;;;;;;;16.85;4.50;;;6.30;99.90;;;;;;4973628;28;20502;-76
2023/01/30 08:45:43;;;;;;;19.02;5.95;;;6.30;99.90;;;;;;4952524;28;20053;-75
2023/01/30 08:48:12;;;;;;;23.05;5.68;;;6.30;99.90;;;;;;4972173;28;20043;-75
2023/01/30 08:50:38;;;;;;;18.63;4.97;;;6.40;99.90;;;;;;4970749;28;20050;-73
2023/01/30 08:53:07;;;;;;;19.13;5.47;;;6.60;99.90;;;;;;4955006;28;20066;-74
2023/01/30 08:55:35;;;;;;;25.90;6.05;;;6.70;99.90;;;;;;4953132;28;20500;-75
2023/01/30 08:58:01;;;;;;;26.58;5.32;;;6.90;99.90;;;;;;4952192;28;20084;-75
2023/01/30 09:00:29;;;;;;;26.33;5.80;;;7.30;99.90;;;;;;4955212;28;20054;-75
2023/01/30 09:02:57;;;;;;;23.05;5.95;;;7.50;99.90;;;;;;4973699;28;20054;-76
2023/01/30 09:05:25;;;;;;;25.20;5.45;;;7.30;99.90;;;;;;4954221;28;20047;-75
2023/01/30 09:07:52;;;;;;;26.05;7.00;;;7.20;99.90;;;;;;4951751;28;20051;-75
2023/01/30 09:10:21;;;;;;;21.45;4.43;;;7.00;99.90;;;;;;4971753;28;20047;-75
2023/01/30 09:12:48;;;;;;;28.52;6.65;;;7.00;99.90;;;;;;4953061;28;20487;-76
2023/01/30 09:15:14;;;;;;;28.25;7.35;;;6.90;99.90;;;;;;4954421;28;20066;-76
2023/01/30 09:17:43;;;;;;;20.58;5.93;;;6.90;99.90;;;;;;4953435;28;20397;-75
2023/01/30 09:20:11;;;;;;;17.70;4.95;;;6.80;99.90;;;;;;4954623;28;20073;-75
2023/01/30 09:22:40;;;;;;;20.65;5.70;;;6.80;99.90;;;;;;4972009;28;20058;-73
2023/01/30 09:25:08;;;;;;;25.95;5.22;;;6.80;99.90;;;;;;4970454;28;20065;-75
2023/01/30 09:27:35;;;;;;;18.40;6.25;;;6.70;99.90;;;;;;4966689;28;20133;-75
2023/01/30 09:30:03;;;;;;;27.63;5.93;;;6.70;99.90;;;;;;4955275;28;20491;-76
2023/01/30 09:32:29;;;;;;;24.25;5.88;;;6.70;99.90;;;;;;4955221;28;20047;-75
2023/01/30 09:34:56;;;;;;;27.30;6.32;;;6.70;99.90;;;;;;4958649;28;20050;-75
2023/01/30 09:37:23;;;;;;;24.98;6.10;;;6.70;99.90;;;;;;4956123;28;20043;-76
2023/01/30 09:39:51;;;;;;;27.95;6.30;;;6.40;99.90;;;;;;4951375;28;20050;-77
2023/01/30 09:42:41;;;;;;;22.60;6.43;;;6.30;99.90;;;;;;4968860;28;20051;-75
2023/01/30 09:45:29;;;;;;;19.20;6.00;;;6.30;99.90;;;;;;4969597;28;20054;-75
2023/01/30 09:48:06;;;;;;;21.13;5.68;;;6.50;99.90;;;;;;4971688;28;20050;-74
2023/01/30 09:50:47;;;;;;;29.02;5.72;;;6.70;99.90;;;;;;4951806;28;20058;-75
2023/01/30 09:53:22;;;;;;;22.20;6.15;;;6.80;99.90;;;;;;4969487;28;20414;-75
2023/01/30 09:55:52;;;;;;;19.90;5.47;;;7.30;99.90;;;;;;4954408;28;20055;-75
2023/01/30 09:58:21;;;;;;;25.67;6.43;;;7.70;99.90;;;;;;4973677;28;20050;-77
2023/01/30 10:00:53;;;;;;;25.17;5.50;;;8.20;99.90;;;;;;4970026;28;20054;-77
2023/01/30 10:03:23;;;;;;;22.08;7.22;;;8.30;99.90;;;;;;4953253;28;20062;-77
2023/01/30 10:05:54;;;;;;;20.05;5.97;;;8.00;99.90;;;;;;4971194;28;20043;-76
2023/01/30 10:08:42;;;;;;;26.58;5.90;;;7.70;99.90;;;;;;4951782;28;20042;-76
2023/01/30 10:11:23;;;;;;;25.70;6.55;;;7.70;99.90;;;;;;4969939;28;20486;-76
2023/01/30 10:14:10;;;;;;;22.58;6.05;;;7.90;99.90;;;;;;4954659;28;20541;-76
2023/01/30 10:16:45;;;;;;;27.80;5.47;;;7.80;99.90;;;;;;4952157;28;20055;-76
2023/01/30 10:19:39;;;;;;;25.02;6.55;;;7.80;99.90;;;;;;4971204;28;20066;-75
2023/01/30 10:22:16;;;;;;;25.25;5.75;;;8.60;99.90;;;;;;4968785;28;20545;-75
2023/01/30 10:24:56;;;;;;;20.85;6.57;;;8.90;99.90;;;;;;4963671;28;20065;-76
2023/01/30 10:27:28;;;;;;;15.57;3.42;;;8.50;99.90;;;;;;4970665;28;20067;-75
2023/01/30 10:29:58;;;;;;;13.27;2.50;;;7.70;99.90;;;;;;4970928;28;20051;-75
2023/01/30 10:32:30;;;;;;;11.93;2.42;;;7.40;99.90;;;;;;4973032;28;20049;-75
2023/01/30 10:35:03;;;;;;;6.38;1.80;;;7.10;99.90;;;;;;4957273;28;20055;-76
2023/01/30 10:37:35;;;;;;;7.55;2.08;;;6.60;99.90;;;;;;4963393;28;20046;-75
2023/01/30 10:40:09;;;;;;;3.78;1.30;;;6.30;99.90;;;;;;4975097;28;20058;-75
2023/01/30 10:42:45;;;;;;;4.97;1.45;;;6.10;99.90;;;;;;4974415;28;20065;-74
2023/01/30 10:45:16;;;;;;;2.80;1.30;;;6.20;99.90;;;;;;4953725;28;20042;-75
2023/01/30 10:47:48;;;;;;;;;;;7.50;99.90;;;;;;4957676;28;20058;-76
2023/01/30 10:50:18;;;;;;;7.05;1.90;;;9.10;99.90;;;;;;4973879;28;20390;-75
2023/01/30 10:52:52;;;;;;;8.13;2.63;;;10.30;99.90;;;;;;4970332;28;20046;-76
2023/01/30 10:55:29;;;;;;;10.68;3.00;;;10.80;99.90;;;;;;4955023;28;20487;-76
2023/01/30 10:58:05;;;;;;;7.95;2.47;;;11.70;99.90;;;;;;4974991;28;20046;-76
2023/01/30 11:00:38;;;;;;;10.95;3.70;;;12.10;99.90;;;;;;4954345;28;20071;-76
2023/01/30 11:03:16;;;;;;;11.75;3.35;;;12.30;99.90;;;;;;4954097;28;20050;-76
2023/01/30 11:05:48;;;;;;;13.30;3.67;;;12.30;99.90;;;;;;4970031;28;20047;-77
2023/01/30 11:08:22;;;;;;;8.35;3.40;;;13.20;99.90;;;;;;4952174;28;20046;-77
2023/01/30 11:10:49;;;;;;;11.75;3.70;;;12.70;99.90;;;;;;4954552;28;20506;-77
2023/01/30 11:13:20;;;;;;;10.95;3.88;;;13.40;99.90;;;;;;4954532;28;20065;-77
2023/01/30 11:15:51;;;;;;;12.10;3.42;;;13.70;99.90;;;;;;4957790;28;20078;-77
2023/01/30 11:18:20;;;;;;;13.07;3.47;;;13.50;99.90;;;;;;4954823;28;20055;-77
2023/01/30 11:21:00;;;;;;;13.55;3.95;;;13.70;99.90;;;;;;4955119;28;20124;-77
2023/01/30 11:23:32;;;;;;;16.48;3.83;;;13.90;99.90;;;;;;4953966;28;20063;-76
2023/01/30 11:26:01;;;;;;;11.73;3.40;;;13.50;99.90;;;;;;4971671;28;20061;-76
2023/01/30 11:28:36;;;;;;;11.07;3.35;;;14.10;99.90;;;;;;4971620;28;20130;-78
2023/01/30 11:31:03;;;;;;;10.73;3.80;;;13.50;99.90;;;;;;4955032;28;20082;-79
2023/01/30 11:33:33;;;;;;;15.85;3.53;;;12.90;99.90;;;;;;4950993;28;20078;-76
2023/01/30 11:36:02;;;;;;;13.55;3.08;;;13.00;99.90;;;;;;4954446;28;20087;-78
2023/01/30 11:38:30;;;;;;;11.45;3.65;;;13.50;99.90;;;;;;4951965;28;20081;-77
2023/01/30 11:41:07;;;;;;;14.07;3.67;;;13.30;99.90;;;;;;4955465;28;20054;-78
2023/01/30 11:43:38;;;;;;;11.23;3.28;;;13.20;99.90;;;;;;4952893;28;20058;-76
2023/01/30 11:46:07;;;;;;;14.15;3.28;;;13.20;99.90;;;;;;4957656;28;20106;-78
2023/01/30 11:48:41;;;;;;;11.10;3.22;;;12.80;99.90;;;;;;4952577;28;20050;-77
2023/01/30 11:51:10;;;;;;;13.63;3.50;;;12.30;99.90;;;;;;4956403;28;20054;-78
2023/01/30 11:53:40;;;;;;;10.65;2.50;;;12.50;99.90;;;;;;4956532;28;20074;-77
2023/01/30 11:56:14;;;;;;;15.38;3.47;;;13.30;99.90;;;;;;4967630;28;20503;-77
2023/01/30 11:58:47;;;;;;;14.07;2.90;;;13.90;99.90;;;;;;4972178;28;20047;-79
2023/01/30 12:01:15;;;;;;;13.00;3.70;;;13.40;99.90;;;;;;4972664;28;20058;-79
2023/01/30 12:03:48;;;;;;;13.52;3.50;;;12.90;99.90;;;;;;4952922;28;20054;-77
2023/01/30 12:06:23;;;;;;;14.60;3.75;;;12.60;99.90;;;;;;4970833;28;20090;-78
2023/01/30 12:08:53;;;;;;;12.55;4.05;;;12.00;99.90;;;;;;4953675;28;20061;-78
2023/01/30 12:11:29;;;;;;;12.57;3.85;;;11.70;99.90;;;;;;4969101;28;20125;-77
2023/01/30 12:14:09;;;;;;;15.20;4.22;;;12.20;99.90;;;;;;4955158;28;20495;-76
2023/01/30 12:16:50;;;;;;;12.80;3.95;;;12.80;99.90;;;;;;4954443;28;20065;-78
2023/01/30 12:19:33;;;;;;;11.60;3.17;;;13.30;99.90;;;;;;4975202;28;20071;-79
2023/01/30 12:22:10;;;;;;;12.32;3.67;;;14.20;99.90;;;;;;4975045;28;20042;-80
2023/01/30 12:24:44;;;;;;;12.48;3.95;;;13.90;99.90;;;;;;4965302;28;20062;-78
2023/01/30 12:27:18;;;;;;;18.08;4.90;;;13.10;99.90;;;;;;4972116;28;20518;-79
2023/01/30 12:29:56;;;;;;;17.33;5.22;;;12.80;99.90;;;;;;4952788;28;20140;-79
2023/01/30 12:32:27;;;;;;;17.13;4.78;;;12.50;99.90;;;;;;4968607;28;20055;-80
2023/01/30 12:34:55;;;;;;;23.05;4.78;;;12.50;99.90;;;;;;4972401;28;20046;-75
2023/01/30 12:37:47;;;;;;;16.08;4.80;;;12.50;99.90;;;;;;4953315;28;20448;-78
2023/01/30 12:40:30;;;;;;;11.07;4.15;;;12.60;99.90;;;;;;4974965;28;20050;-78
2023/01/30 12:43:34;;;;;;;16.60;4.22;;;12.60;99.90;;;;;;4967248;28;20050;-79
2023/01/30 12:46:15;;;;;;;17.20;4.38;;;12.20;99.90;;;;;;4949054;28;20054;-77
2023/01/30 12:49:19;;;;;;;18.83;4.30;;;11.90;99.90;;;;;;4953458;28;20472;-76
2023/01/30 12:52:01;;;;;;;17.55;4.18;;;11.60;99.90;;;;;;4966730;28;20082;-77
2023/01/30 12:54:43;;;;;;;13.38;4.10;;;11.20;99.90;;;;;;4970352;28;20059;-78
2023/01/30 12:57:21;;;;;;;16.67;4.22;;;11.60;99.90;;;;;;4971244;28;20047;-78
2023/01/30 13:00:02;;;;;;;21.15;4.90;;;11.20;99.90;;;;;;4952441;28;20054;-78
2023/01/30 13:02:54;;;;;;;14.73;4.90;;;10.90;99.90;;;;;;4969433;28;20059;-77
2023/01/30 13:05:34;;;;;;;17.52;4.03;;;10.70;99.90;;;;;;4952696;28;20057;-77
2023/01/30 13:08:18;;;;;;;18.67;4.47;;;10.80;99.90;;;;;;4953790;28;20059;-77
2023/01/30 13:10:51;;;;;;;14.88;4.78;;;11.20;99.90;;;;;;4959440;28;20072;-77